createdAt,value
2023-05-19T00:02:27.253Z,102134.34
2023-05-19T00:04:55.938Z,102137.38
2023-05-19T00:07:31.508Z,102130.88
2023-05-19T00:10:00.140Z,102131.22
2023-05-19T00:12:28.342Z,102129.34
2023-05-19T00:14:56.678Z,102130.47
2023-05-19T00:17:26.501Z,102132.34
2023-05-19T00:19:54.824Z,102132.59
2023-05-19T00:22:22.915Z,102124.47
2023-05-19T00:24:50.818Z,102129.09
2023-05-19T00:27:18.730Z,102130.09
2023-05-19T00:29:46.613Z,102124.72
2023-05-19T00:32:14.493Z,102124.84
2023-05-19T00:34:43.793Z,102125.72
2023-05-19T00:37:11.660Z,102126.06
2023-05-19T00:39:39.540Z,102126.31
2023-05-19T00:42:07.533Z,102128.22
2023-05-19T00:44:41.096Z,102125.47
2023-05-19T00:47:09.179Z,102121.41
2023-05-19T00:49:37.560Z,102125.03
2023-05-19T00:52:08.210Z,102128.66
2023-05-19T00:54:36.189Z,102120.81
2023-05-19T00:57:04.654Z,102120.81
2023-05-19T00:59:32.742Z,102120.03
2023-05-19T01:02:02.955Z,102120.16
2023-05-19T01:04:34.938Z,102121.16
2023-05-19T01:07:02.869Z,102120.53
2023-05-19T01:09:32.376Z,102115.78
2023-05-19T01:12:00.834Z,102111.41
2023-05-19T01:14:30.012Z,102117.78
2023-05-19T01:17:05.618Z,102114.16
2023-05-19T01:20:02.184Z,102117.03
2023-05-19T01:22:49.166Z,102110.88
2023-05-19T01:25:47.135Z,102114.00
2023-05-19T01:28:32.284Z,102103.88
2023-05-19T01:31:04.162Z,102102.25
2023-05-19T01:33:33.737Z,102103.50
2023-05-19T01:36:04.278Z,102103.38
2023-05-19T01:38:35.293Z,102103.38
2023-05-19T01:41:05.098Z,102098.97
2023-05-19T01:43:34.336Z,102096.34
2023-05-19T01:46:04.464Z,102100.09
2023-05-19T01:48:34.343Z,102103.09
2023-05-19T01:51:02.349Z,102102.44
2023-05-19T01:53:30.219Z,102106.28
2023-05-19T01:55:58.436Z,102107.28
2023-05-19T01:58:36.170Z,102110.03
2023-05-19T02:01:15.946Z,102112.03
2023-05-19T02:04:02.622Z,102118.66
2023-05-19T02:06:38.159Z,102108.88
2023-05-19T02:09:13.189Z,102114.50
2023-05-19T02:11:48.368Z,102112.88
2023-05-19T02:14:21.292Z,102118.47
2023-05-19T02:16:51.418Z,102114.19
2023-05-19T02:19:24.757Z,102116.94
2023-05-19T02:21:52.816Z,102117.38
2023-05-19T02:24:23.739Z,102112.91
2023-05-19T02:26:52.521Z,102113.03
2023-05-19T02:29:20.637Z,102114.13
2023-05-19T02:31:50.015Z,102110.59
2023-05-19T02:34:18.062Z,102107.09
2023-05-19T02:36:46.008Z,102097.25
2023-05-19T02:39:13.928Z,102105.59
2023-05-19T02:41:42.010Z,102102.06
2023-05-19T02:44:10.055Z,102106.78
2023-05-19T02:46:38.162Z,102105.06
2023-05-19T02:49:07.429Z,102100.56
2023-05-19T02:51:35.308Z,102102.75
2023-05-19T02:54:03.153Z,102087.41
2023-05-19T02:56:31.026Z,102096.88
2023-05-19T02:58:59.195Z,102097.13
2023-05-19T03:01:27.035Z,102087.44
2023-05-19T03:03:55.151Z,102084.09
2023-05-19T03:06:24.475Z,102083.53
2023-05-19T03:08:52.656Z,102092.13
2023-05-19T03:11:20.754Z,102087.94
2023-05-19T03:13:48.577Z,102091.81
2023-05-19T03:16:16.480Z,102100.25
2023-05-19T03:18:44.469Z,102095.75
2023-05-19T03:21:12.742Z,102099.63
2023-05-19T03:23:41.944Z,102097.75
2023-05-19T03:26:10.790Z,102100.72
2023-05-19T03:28:38.677Z,102101.69
2023-05-19T03:31:06.908Z,102102.69
2023-05-19T03:33:39.187Z,102088.19
2023-05-19T03:36:08.472Z,102094.44
2023-05-19T03:38:39.397Z,102090.19
2023-05-19T03:41:08.711Z,102090.84
2023-05-19T03:43:36.620Z,102086.44
2023-05-19T03:46:06.704Z,102088.34
2023-05-19T03:48:43.716Z,102094.81
2023-05-19T03:51:26.095Z,102083.06
2023-05-19T03:53:57.160Z,102099.41
2023-05-19T03:56:27.722Z,102091.91
2023-05-19T03:58:55.902Z,102093.94
2023-05-19T04:01:23.859Z,102089.44
2023-05-19T04:03:52.089Z,102087.66
2023-05-19T04:06:20.012Z,102093.16
2023-05-19T04:08:47.933Z,102083.16
2023-05-19T04:11:16.852Z,102085.91
2023-05-19T04:13:46.192Z,102093.16
2023-05-19T04:16:14.572Z,102088.66
2023-05-19T04:18:42.746Z,102089.75
2023-05-19T04:21:10.670Z,102096.09
2023-05-19T04:23:39.527Z,102092.63
2023-05-19T04:26:07.593Z,102090.00
2023-05-19T04:28:38.925Z,102090.97
2023-05-19T04:31:10.994Z,102086.38
2023-05-19T04:33:39.744Z,102088.44
2023-05-19T04:36:10.695Z,102090.31
2023-05-19T04:38:40.848Z,102084.81
2023-05-19T04:41:11.019Z,102092.16
2023-05-19T04:43:44.438Z,102086.69
2023-05-19T04:46:14.753Z,102091.41
2023-05-19T04:48:45.184Z,102093.47
2023-05-19T04:51:14.444Z,102096.03
2023-05-19T04:53:43.977Z,102103.13
2023-05-19T04:56:15.559Z,102104.16
2023-05-19T04:58:45.136Z,102096.78
2023-05-19T05:01:15.738Z,102101.16
2023-05-19T05:03:44.317Z,102095.78
2023-05-19T05:06:12.655Z,102097.22
2023-05-19T05:08:41.432Z,102091.19
2023-05-19T05:11:10.453Z,102088.88
2023-05-19T05:13:38.918Z,102092.69
2023-05-19T05:16:08.486Z,102098.13
2023-05-19T05:18:39.405Z,102096.09
2023-05-19T05:21:08.724Z,102105.94
2023-05-19T05:23:37.699Z,102097.66
2023-05-19T05:26:11.865Z,102099.03
2023-05-19T05:28:40.491Z,102090.56
2023-05-19T05:31:08.582Z,102097.50
2023-05-19T05:33:39.710Z,102097.81
2023-05-19T05:36:10.544Z,102093.72
2023-05-19T05:38:38.522Z,102102.72
2023-05-19T05:41:06.522Z,102092.28
2023-05-19T05:43:35.623Z,102101.28
2023-05-19T05:46:05.238Z,102098.16
2023-05-19T05:48:33.832Z,102097.00
2023-05-19T05:51:03.684Z,102098.59
2023-05-19T05:53:38.278Z,102088.19
2023-05-19T05:56:08.026Z,102085.41
2023-05-19T05:58:44.034Z,102089.91
2023-05-19T06:01:12.797Z,102088.84
2023-05-19T06:03:41.869Z,102081.41
2023-05-19T06:06:12.795Z,102093.13
2023-05-19T06:08:41.751Z,102077.66
2023-05-19T06:11:09.863Z,102072.47
2023-05-19T06:13:41.334Z,102075.31
2023-05-19T06:16:12.653Z,102078.56
2023-05-19T06:18:44.689Z,102072.22
2023-05-19T06:21:14.186Z,102076.66
2023-05-19T06:23:43.493Z,102070.59
2023-05-19T06:26:13.034Z,102070.91
2023-05-19T06:28:40.935Z,102074.72
2023-05-19T06:31:08.947Z,102078.53
2023-05-19T06:34:03.236Z,102079.03
2023-05-19T06:36:35.289Z,102081.81
2023-05-19T06:39:03.683Z,102079.78
2023-05-19T06:41:32.915Z,102079.22
2023-05-19T06:44:01.004Z,102076.16
2023-05-19T06:46:33.563Z,102077.66
2023-05-19T06:49:01.636Z,102083.34
2023-05-19T06:51:35.437Z,102078.91
2023-05-19T06:54:03.381Z,102079.59
2023-05-19T06:56:31.244Z,102080.81
2023-05-19T06:58:59.255Z,102079.06
2023-05-19T07:01:32.650Z,102080.66
2023-05-19T07:04:00.867Z,102082.56
2023-05-19T07:06:29.248Z,102079.06
2023-05-19T07:08:58.508Z,102079.22
2023-05-19T07:11:27.423Z,102078.06
2023-05-19T07:13:55.457Z,102082.88
2023-05-19T07:16:28.336Z,102081.13
2023-05-19T07:18:56.543Z,102071.38
2023-05-19T07:21:24.847Z,102071.69
2023-05-19T07:23:52.755Z,102080.84
2023-05-19T07:26:22.553Z,102077.34
2023-05-19T07:28:51.874Z,102076.91
2023-05-19T07:31:20.603Z,102078.94
2023-05-19T07:33:48.484Z,102071.50
2023-05-19T07:36:16.367Z,102074.81
2023-05-19T07:38:44.313Z,102072.50
2023-05-19T07:41:12.208Z,102071.16
2023-05-19T07:43:41.718Z,102073.31
2023-05-19T07:46:11.414Z,102070.13
2023-05-19T07:48:39.313Z,102066.34
2023-05-19T07:51:10.041Z,102061.94
2023-05-19T07:53:38.022Z,102061.47
2023-05-19T07:56:06.501Z,102063.94
2023-05-19T07:58:34.467Z,102057.53
2023-05-19T08:01:03.870Z,102059.72
2023-05-19T08:03:32.050Z,102055.06
2023-05-19T08:06:00.088Z,102053.88
2023-05-19T08:08:28.175Z,102043.69
2023-05-19T08:10:56.099Z,102044.22
2023-05-19T08:13:23.998Z,102046.56
2023-05-19T08:15:51.929Z,102038.97
2023-05-19T08:18:21.295Z,102044.63
2023-05-19T08:20:49.268Z,102041.13
2023-05-19T08:23:17.574Z,102037.47
2023-05-19T08:25:45.623Z,102037.72
2023-05-19T08:28:13.520Z,102030.88
2023-05-19T08:30:41.466Z,102036.06
2023-05-19T08:33:09.549Z,102035.19
2023-05-19T08:35:38.788Z,102031.84
2023-05-19T08:38:06.783Z,102029.38
2023-05-19T08:40:36.055Z,102030.81
2023-05-19T08:43:04.646Z,102023.19
2023-05-19T08:45:34.747Z,102015.59
2023-05-19T08:48:04.080Z,102010.63
2023-05-19T08:50:33.462Z,102000.41
2023-05-19T08:53:18.089Z,102008.09
2023-05-19T08:56:01.035Z,102014.91
2023-05-19T08:58:29.087Z,102010.53
2023-05-19T09:00:58.967Z,102005.94
2023-05-19T09:03:29.118Z,102012.69
2023-05-19T09:05:57.311Z,102001.19
2023-05-19T09:08:26.746Z,102006.81
2023-05-19T09:10:54.579Z,102006.38
2023-05-19T09:13:22.577Z,102003.25
2023-05-19T09:15:53.377Z,102001.09
2023-05-19T09:18:21.272Z,101995.22
2023-05-19T09:20:49.232Z,101999.09
2023-05-19T09:23:18.300Z,101990.44
2023-05-19T09:25:51.770Z,101986.03
2023-05-19T09:28:27.025Z,101994.88
2023-05-19T09:31:05.314Z,101984.34
2023-05-19T09:33:35.283Z,101985.75
2023-05-19T09:36:06.077Z,101986.78
2023-05-19T09:38:34.381Z,101982.50
2023-05-19T09:41:03.841Z,101977.91
2023-05-19T09:43:33.510Z,101974.94
2023-05-19T09:46:02.312Z,101972.56
2023-05-19T09:48:30.349Z,101965.78
2023-05-19T09:50:58.875Z,101968.09
2023-05-19T09:53:27.047Z,101954.59
2023-05-19T09:55:57.836Z,101955.13
2023-05-19T09:58:28.066Z,101951.56
2023-05-19T10:00:56.907Z,101952.97
2023-05-19T10:03:24.945Z,101962.50
2023-05-19T10:05:54.795Z,101956.84
2023-05-19T10:08:24.488Z,101952.84
2023-05-19T10:10:52.562Z,101954.97
2023-05-19T10:13:22.461Z,101958.28
2023-05-19T10:18:26.868Z,101959.03
2023-05-19T10:20:55.774Z,101959.75
2023-05-19T10:23:24.016Z,101960.63
2023-05-19T10:25:53.631Z,101959.09
2023-05-19T10:28:27.946Z,101943.47
2023-05-19T10:31:01.488Z,101950.63
2023-05-19T10:33:40.194Z,101944.53
2023-05-19T10:36:26.571Z,101950.50
2023-05-19T10:39:01.344Z,101946.50
2023-05-19T10:41:38.540Z,101953.31
2023-05-19T10:44:14.542Z,101946.88
2023-05-19T10:46:44.325Z,101950.16
2023-05-19T10:49:21.277Z,101936.47
2023-05-19T10:51:49.605Z,101939.22
2023-05-19T10:54:20.951Z,101943.75
2023-05-19T10:56:48.940Z,101935.59
2023-05-19T10:59:33.200Z,101941.53
2023-05-19T11:02:06.520Z,101939.25
2023-05-19T11:04:41.332Z,101935.63
2023-05-19T11:07:10.459Z,101935.28
2023-05-19T11:09:42.014Z,101937.19
2023-05-19T11:12:11.628Z,101928.84
2023-05-19T11:14:41.126Z,101929.88
2023-05-19T11:17:15.759Z,101924.19
2023-05-19T11:19:54.915Z,101926.78
2023-05-19T11:22:25.221Z,101915.81
2023-05-19T11:24:55.449Z,101920.19
2023-05-19T11:27:28.297Z,101918.78
2023-05-19T11:29:57.403Z,101932.00
2023-05-19T11:32:30.620Z,101921.91
2023-05-19T11:34:59.037Z,101923.63
2023-05-19T11:37:28.688Z,101922.22
2023-05-19T11:39:56.719Z,101918.22
2023-05-19T11:42:25.097Z,101913.16
2023-05-19T11:44:56.654Z,101916.47
2023-05-19T11:47:24.772Z,101909.53
2023-05-19T11:49:56.673Z,101909.69
2023-05-19T11:52:25.158Z,101918.06
2023-05-19T11:54:53.152Z,101909.88
2023-05-19T11:57:21.402Z,101902.56
2023-05-19T11:59:49.915Z,101912.84
2023-05-19T12:02:20.078Z,101906.25
2023-05-19T12:04:49.278Z,101903.81
2023-05-19T12:07:19.887Z,101897.19
2023-05-19T12:09:48.453Z,101905.53
2023-05-19T12:12:17.477Z,101899.97
2023-05-19T12:14:47.110Z,101891.47
2023-05-19T12:17:16.531Z,101886.59
2023-05-19T12:19:45.857Z,101894.41
2023-05-19T12:22:14.265Z,101881.03
2023-05-19T12:24:45.141Z,101885.34
2023-05-19T12:27:14.087Z,101874.22
2023-05-19T12:29:42.059Z,101884.50
2023-05-19T12:32:10.838Z,101884.50
2023-05-19T12:34:39.461Z,101884.69
2023-05-19T12:37:07.387Z,101879.28
2023-05-19T12:39:35.336Z,101876.34
2023-05-19T12:42:06.841Z,101861.38
2023-05-19T12:44:38.380Z,101861.16
2023-05-19T12:47:07.911Z,101857.91
2023-05-19T12:49:35.804Z,101856.47
2023-05-19T12:52:07.216Z,101856.47
2023-05-19T12:54:38.721Z,101859.47
2023-05-19T12:57:08.516Z,101861.38
2023-05-19T12:59:38.639Z,101849.88
2023-05-19T13:02:07.676Z,101848.53
2023-05-19T13:04:36.067Z,101845.22
2023-05-19T13:07:03.973Z,101843.84
2023-05-19T13:09:35.021Z,101853.25
2023-05-19T13:12:04.708Z,101855.66
2023-05-19T13:14:33.957Z,101853.94
2023-05-19T13:17:02.015Z,101851.53
2023-05-19T13:19:30.175Z,101849.09
2023-05-19T13:21:58.755Z,101845.81
2023-05-19T13:24:26.727Z,101848.75
2023-05-19T13:26:55.253Z,101841.41
2023-05-19T13:29:23.901Z,101846.44
2023-05-19T13:31:53.165Z,101840.72
2023-05-19T13:34:21.004Z,101836.75
2023-05-19T13:36:48.886Z,101843.34
2023-05-19T13:39:16.837Z,101832.38
2023-05-19T13:41:44.669Z,101829.78
2023-05-19T13:44:12.463Z,101831.03
2023-05-19T13:46:45.827Z,101834.66
2023-05-19T13:49:15.769Z,101833.81
2023-05-19T13:51:44.562Z,101819.19
2023-05-19T13:54:12.455Z,101819.53
2023-05-19T13:56:40.514Z,101820.94
2023-05-19T13:59:08.528Z,101811.38
2023-05-19T14:01:37.052Z,101804.78
2023-05-19T14:04:05.461Z,101824.22
2023-05-19T14:06:34.868Z,101812.75
2023-05-19T14:09:02.719Z,101814.34
2023-05-19T14:11:30.609Z,101818.16
2023-05-19T14:13:58.497Z,101812.06
2023-05-19T14:16:28.707Z,101808.75
2023-05-19T14:18:56.834Z,101811.53
2023-05-19T14:21:24.905Z,101810.50
2023-05-19T14:23:54.073Z,101804.72
2023-05-19T14:26:21.983Z,101806.16
2023-05-19T14:28:49.893Z,101803.19
2023-05-19T14:31:17.787Z,101805.97
2023-05-19T14:33:45.810Z,101804.59
2023-05-19T14:36:13.719Z,101798.16
2023-05-19T14:38:42.874Z,101787.91
2023-05-19T14:41:12.160Z,101797.28
2023-05-19T14:43:42.136Z,101798.00
2023-05-19T14:46:10.134Z,101804.09
2023-05-19T14:48:38.034Z,101806.00
2023-05-19T14:51:06.299Z,101797.44
2023-05-19T14:53:34.199Z,101793.63
2023-05-19T14:56:02.117Z,101791.88
2023-05-19T14:58:31.680Z,101788.94
2023-05-19T15:00:59.985Z,101794.50
2023-05-19T15:03:27.920Z,101790.34
2023-05-19T15:05:55.789Z,101791.22
2023-05-19T15:08:23.622Z,101788.44
2023-05-19T15:10:51.612Z,101780.63
2023-05-19T15:13:21.459Z,101780.44
2023-05-19T15:16:04.694Z,101787.03
2023-05-19T15:18:42.897Z,101781.84
2023-05-19T15:21:10.860Z,101778.00
2023-05-19T15:23:38.725Z,101785.50
2023-05-19T15:26:06.585Z,101775.44
2023-05-19T15:28:34.554Z,101773.84
2023-05-19T15:31:03.814Z,101783.06
2023-05-19T15:33:31.774Z,101775.25
2023-05-19T15:35:59.661Z,101770.91
2023-05-19T15:38:30.164Z,101772.66
2023-05-19T15:40:58.974Z,101772.31
2023-05-19T15:43:26.831Z,101773.34
2023-05-19T15:45:56.218Z,101772.66
2023-05-19T15:48:28.753Z,101767.28
2023-05-19T15:50:58.108Z,101772.13
2023-05-19T15:53:26.014Z,101766.44
2023-05-19T15:55:53.975Z,101768.84
2023-05-19T15:58:22.038Z,101763.81
2023-05-19T16:00:50.164Z,101754.78
2023-05-19T16:03:18.053Z,101760.72
2023-05-19T16:05:47.298Z,101755.50
2023-05-19T16:08:15.533Z,101760.69
2023-05-19T16:10:43.389Z,101746.41
2023-05-19T16:13:11.190Z,101743.81
2023-05-19T16:15:39.041Z,101749.72
2023-05-19T16:18:07.096Z,101744.34
2023-05-19T16:20:35.252Z,101747.13
2023-05-19T16:23:04.793Z,101732.91
2023-05-19T16:25:32.759Z,101740.16
2023-05-19T16:28:00.720Z,101738.63
2023-05-19T16:30:28.944Z,101728.00
2023-05-19T16:32:56.918Z,101725.22
2023-05-19T16:35:25.047Z,101738.06
2023-05-19T16:37:53.019Z,101725.22
2023-05-19T16:40:22.234Z,101734.59
2023-05-19T16:42:50.158Z,101727.84
2023-05-19T16:45:18.347Z,101719.34
2023-05-19T16:47:46.511Z,101721.94
2023-05-19T16:50:14.550Z,101715.34
2023-05-19T16:52:42.521Z,101718.13
2023-05-19T16:55:11.005Z,101712.75
2023-05-19T16:57:40.412Z,101727.13
2023-05-19T17:00:09.796Z,101722.63
2023-05-19T17:02:37.833Z,101724.38
2023-05-19T17:05:06.344Z,101723.69
2023-05-19T17:07:34.393Z,101720.91
2023-05-19T17:10:02.572Z,101729.25
2023-05-19T17:12:30.591Z,101720.91
2023-05-19T17:15:00.037Z,101715.88
2023-05-19T17:17:28.115Z,101713.09
2023-05-19T17:19:56.673Z,101717.28
2023-05-19T17:22:24.758Z,101716.03
2023-05-19T17:24:53.016Z,101721.25
2023-05-19T17:27:21.109Z,101717.78
2023-05-19T17:29:52.888Z,101723.50
2023-05-19T17:32:25.833Z,101720.72
2023-05-19T17:34:54.137Z,101725.06
2023-05-19T17:37:25.660Z,101725.44
2023-05-19T17:39:53.817Z,101725.94
2023-05-19T17:42:21.993Z,101729.59
2023-05-19T17:44:50.075Z,101725.59
2023-05-19T17:47:18.170Z,101735.31
2023-05-19T17:49:47.871Z,101733.56
2023-05-19T17:52:16.753Z,101745.03
2023-05-19T17:54:45.214Z,101732.38
2023-05-19T17:57:14.509Z,101741.03
2023-05-19T17:59:43.201Z,101734.28
2023-05-19T18:02:13.100Z,101740.34
2023-05-19T18:04:42.318Z,101742.44
2023-05-19T18:07:12.414Z,101749.56
2023-05-19T18:09:44.976Z,101744.31
2023-05-19T18:12:13.066Z,101746.75
2023-05-19T18:14:41.287Z,101750.75
2023-05-19T18:17:09.230Z,101741.00
2023-05-19T18:19:37.288Z,101739.63
2023-05-19T18:22:05.646Z,101738.03
2023-05-19T18:24:34.937Z,101742.72
2023-05-19T18:27:03.275Z,101745.00
2023-05-19T18:29:31.277Z,101741.69
2023-05-19T18:32:03.693Z,101748.25
2023-05-19T18:34:42.900Z,101744.41
2023-05-19T18:37:12.026Z,101746.31
2023-05-19T18:39:41.359Z,101745.44
2023-05-19T18:42:09.759Z,101751.34
2023-05-19T18:44:38.084Z,101756.50
2023-05-19T18:47:06.454Z,101757.19
2023-05-19T18:49:34.751Z,101754.75
2023-05-19T18:52:02.776Z,101761.69
2023-05-19T18:54:32.389Z,101756.44
2023-05-19T18:57:03.183Z,101759.38
2023-05-19T18:59:31.131Z,101763.88
2023-05-19T19:01:59.030Z,101770.81
2023-05-19T19:04:27.039Z,101765.72
2023-05-19T19:06:55.063Z,101763.31
2023-05-19T19:09:23.133Z,101774.72
2023-05-19T19:11:51.068Z,101775.91
2023-05-19T19:14:20.714Z,101785.44
2023-05-19T19:16:48.730Z,101780.38
2023-05-19T19:19:16.951Z,101782.63
2023-05-19T19:21:45.245Z,101791.28
2023-05-19T19:28:36.438Z,101787.34
2023-05-19T19:31:05.852Z,101787.50
2023-05-19T19:33:33.878Z,101798.00
2023-05-19T19:36:01.808Z,101791.78
2023-05-19T19:38:29.802Z,101800.56
2023-05-19T19:40:57.690Z,101792.59
2023-05-19T19:43:25.505Z,101799.31
2023-05-19T19:45:59.914Z,101805.75
2023-05-19T19:48:29.626Z,101799.78
2023-05-19T19:50:58.082Z,101813.13
2023-05-19T19:53:26.284Z,101807.88
2023-05-19T19:55:58.539Z,101806.13
2023-05-19T19:58:27.030Z,101806.94
2023-05-19T20:00:58.563Z,101809.72
2023-05-19T20:03:26.863Z,101814.88
2023-05-19T20:05:57.936Z,101815.03
2023-05-19T20:08:26.829Z,101815.53
2023-05-19T20:10:55.098Z,101809.41
2023-05-19T20:13:23.029Z,101815.25
2023-05-19T20:15:51.149Z,101820.28
2023-05-19T20:18:19.166Z,101834.25
2023-05-19T20:20:47.024Z,101831.81
2023-05-19T20:23:16.313Z,101829.91
2023-05-19T20:26:02.498Z,101823.94
2023-05-19T20:28:32.223Z,101822.50
2023-05-19T20:31:00.852Z,101825.47
2023-05-19T20:33:29.135Z,101830.44
2023-05-19T20:35:57.064Z,101826.06
2023-05-19T20:38:26.572Z,101837.13
2023-05-19T20:40:54.880Z,101837.78
2023-05-19T20:43:22.950Z,101835.16
2023-05-19T20:45:51.381Z,101836.50
2023-05-19T20:48:19.472Z,101831.41
2023-05-19T20:50:47.583Z,101835.53
2023-05-19T20:53:15.764Z,101834.81
2023-05-19T20:55:46.802Z,101833.06
2023-05-19T20:58:14.725Z,101842.00
2023-05-19T21:00:42.588Z,101844.19
2023-05-19T21:03:11.580Z,101846.28
2023-05-19T21:05:39.602Z,101843.94
2023-05-19T21:08:12.694Z,101850.66
2023-05-19T21:10:40.934Z,101843.69
2023-05-19T21:13:10.155Z,101842.97
2023-05-19T21:15:38.250Z,101850.00
2023-05-19T21:18:06.270Z,101845.78
2023-05-19T21:20:34.670Z,101855.38
2023-05-19T21:23:02.703Z,101853.63
2023-05-19T21:25:31.014Z,101857.88
2023-05-19T21:27:59.266Z,101858.03
2023-05-19T21:30:28.634Z,101860.94
2023-05-19T21:32:56.756Z,101861.41
2023-05-19T21:35:24.713Z,101853.25
2023-05-19T21:37:52.642Z,101863.59
2023-05-19T21:40:20.690Z,101855.78
2023-05-19T21:42:48.532Z,101860.56
2023-05-19T21:45:16.432Z,101869.00
2023-05-19T21:47:45.813Z,101869.00
2023-05-19T21:50:15.699Z,101862.91
2023-05-19T21:52:43.722Z,101862.19
2023-05-19T21:55:11.710Z,101861.47
2023-05-19T21:57:39.694Z,101859.72
2023-05-19T22:00:08.941Z,101863.50
2023-05-19T22:02:39.638Z,101857.56
2023-05-19T22:05:09.863Z,101862.94
2023-05-19T22:07:37.713Z,101866.00
2023-05-19T22:10:06.314Z,101857.84
2023-05-19T22:12:35.586Z,101859.00
2023-05-19T22:15:03.615Z,101852.06
2023-05-19T22:17:31.821Z,101865.00
2023-05-19T22:19:59.735Z,101862.50
2023-05-19T22:22:29.008Z,101867.03
2023-05-19T22:24:57.001Z,101862.84
2023-05-19T22:27:24.863Z,101862.84
2023-05-19T22:29:52.742Z,101862.97
2023-05-19T22:32:20.635Z,101857.72
2023-05-19T22:34:48.637Z,101859.63
2023-05-19T22:37:16.551Z,101863.56
2023-05-19T22:39:46.159Z,101863.56
2023-05-19T22:42:14.064Z,101860.22
2023-05-19T22:44:41.969Z,101857.59
2023-05-19T22:47:13.369Z,101858.78
2023-05-19T22:49:42.390Z,101852.53
2023-05-19T22:52:12.010Z,101852.53
2023-05-19T22:54:40.246Z,101855.56
2023-05-19T22:57:09.534Z,101853.84
2023-05-19T22:59:38.273Z,101856.00
2023-05-19T23:02:06.582Z,101850.63
2023-05-19T23:04:35.210Z,101853.66
2023-05-19T23:07:03.138Z,101852.97
2023-05-19T23:09:31.062Z,101844.97
2023-05-19T23:11:58.897Z,101843.22
2023-05-19T23:14:28.190Z,101849.75
2023-05-19T23:16:56.109Z,101848.13
2023-05-19T23:19:24.335Z,101842.94
2023-05-19T23:21:52.290Z,101843.06
2023-05-19T23:24:20.140Z,101837.69
2023-05-19T23:26:47.965Z,101837.81
2023-05-19T23:29:15.887Z,101849.03
2023-05-19T23:31:45.797Z,101840.03
2023-05-19T23:34:14.068Z,101840.44
2023-05-19T23:36:41.998Z,101847.00
2023-05-19T23:39:10.016Z,101836.97
2023-05-19T23:41:37.993Z,101839.16
2023-05-19T23:44:06.460Z,101839.28
2023-05-19T23:46:34.609Z,101833.06
2023-05-19T23:49:04.039Z,101824.03
2023-05-19T23:51:32.323Z,101821.69
2023-05-19T23:54:00.446Z,101821.84
2023-05-19T23:56:28.280Z,101820.25
2023-05-19T23:58:56.144Z,101821.28
